Time;durP1;ratioP1;P1;durP2;ratioP2;P2;SDS_P1;SDS_P2;PMS_P1;PMS_P2;Temp;Humidity;BMP_temperature;BMP_pressure;BME280_temperature;BME280_humidity;BME280_pressure;Samples;Min_cycle;Max_cycle;Signal;HPM_P1;HPM_P2
2021/08/13 00:00:46;;;;;;;5.22;4.10;;;;;;;21.88;nan;100845.66;5051323;28;20278;-74
2021/08/13 00:03:13;;;;;;;8.95;5.00;;;;;;;21.76;nan;100850.06;5050993;28;20025;-74
2021/08/13 00:05:38;;;;;;;5.90;4.18;;;;;;;21.72;nan;100835.44;5051265;28;20029;-74
2021/08/13 00:08:04;;;;;;;5.13;4.25;;;;;;;21.71;nan;100837.28;5050948;28;20543;-74
2021/08/13 00:10:29;;;;;;;5.53;4.38;;;;;;;21.80;nan;100835.97;5050606;28;20037;-74
2021/08/13 00:12:54;;;;;;;4.95;3.83;;;;;;;21.84;nan;100836.38;5051054;28;20045;-74
2021/08/13 00:15:20;;;;;;;7.00;3.90;;;;;;;21.85;nan;100833.44;5050525;28;20098;-74
2021/08/13 00:17:45;;;;;;;6.05;4.07;;;;;;;21.87;nan;100832.41;5050196;28;20033;-74
2021/08/13 00:20:11;;;;;;;5.10;4.30;;;;;;;21.86;nan;100828.91;5050442;28;20035;-74
2021/08/13 00:22:36;;;;;;;5.50;3.90;;;;;;;21.76;nan;100829.38;5050773;28;20699;-74
2021/08/13 00:25:02;;;;;;;5.13;4.20;;;;;;;21.67;nan;100825.31;5049283;28;20067;-74
2021/08/13 00:27:27;;;;;;;4.90;3.83;;;;;;;21.59;nan;100826.38;5050511;28;20133;-74
2021/08/13 00:29:53;;;;;;;4.25;3.50;;;;;;;21.58;nan;100826.63;5050334;28;20037;-74
2021/08/13 00:32:18;;;;;;;4.90;3.67;;;;;;;21.50;nan;100829.53;5048237;28;20026;-74
2021/08/13 00:34:43;;;;;;;6.47;4.22;;;;;;;21.46;nan;100820.28;5049014;28;20306;-74
2021/08/13 00:37:09;;;;;;;5.68;4.70;;;;;;;21.43;nan;100818.84;5050418;28;20112;-74
2021/08/13 00:39:34;;;;;;;7.90;4.95;;;;;;;21.45;nan;100815.91;5049942;28;20060;-73
2021/08/13 00:41:59;;;;;;;6.68;4.80;;;;;;;21.56;nan;100823.31;5050562;28;20037;-74
2021/08/13 00:44:25;;;;;;;6.82;5.18;;;;;;;21.60;nan;100824.53;5050005;28;20130;-74
2021/08/13 00:46:50;;;;;;;11.13;5.57;;;;;;;21.66;nan;100823.66;5049550;28;20105;-74
2021/08/13 00:49:15;;;;;;;6.60;5.07;;;;;;;21.56;nan;100828.69;5049942;28;20498;-74
2021/08/13 00:51:41;;;;;;;15.88;5.40;;;;;;;21.52;nan;100816.69;5050424;28;20321;-74
2021/08/13 00:54:06;;;;;;;9.90;5.60;;;;;;;21.49;nan;100812.59;5049690;28;20440;-74
2021/08/13 00:56:31;;;;;;;7.50;5.38;;;;;;;21.36;nan;100813.47;5050620;28;20025;-75
2021/08/13 00:58:57;;;;;;;5.78;4.70;;;;;;;21.32;nan;100817.63;5049741;28;20546;-73
2021/08/13 01:01:22;;;;;;;5.47;4.53;;;;;;;21.28;nan;100826.34;5050076;28;20208;-73
2021/08/13 01:03:48;;;;;;;10.13;4.65;;;;;;;21.28;nan;100819.09;5050044;28;20398;-73
2021/08/13 01:06:16;;;;;;;8.48;4.78;;;;;;;21.21;nan;100827.22;5049473;28;20033;-73
2021/08/13 01:08:41;;;;;;;7.97;5.05;;;;;;;21.27;nan;100822.81;5050007;28;20044;-73
2021/08/13 01:11:40;;;;;;;6.70;5.15;;;;;;;21.16;nan;100827.00;5049973;28;20033;-73
2021/08/13 01:14:14;;;;;;;6.40;4.28;;;;;;;21.15;nan;100825.38;5052835;28;20037;-73
2021/08/13 01:16:44;;;;;;;5.70;4.43;;;;;;;21.11;nan;100821.44;5049875;28;20033;-73
2021/08/13 01:19:36;;;;;;;7.82;4.60;;;;;;;21.09;nan;100831.59;5049419;28;20037;-73
2021/08/13 01:22:19;;;;;;;8.23;4.90;;;;;;;21.10;nan;100827.88;5049584;28;20082;-73
2021/08/13 01:24:46;;;;;;;7.05;5.15;;;;;;;21.09;nan;100820.00;5049672;28;20401;-73
2021/08/13 01:27:16;;;;;;;6.90;4.95;;;;;;;21.14;nan;100812.97;5049334;28;20037;-73
2021/08/13 01:30:04;;;;;;;7.47;4.95;;;;;;;21.11;nan;100812.56;5049533;28;20383;-73
2021/08/13 01:32:35;;;;;;;9.98;5.03;;;;;;;21.16;nan;100810.88;5037087;28;20064;-73
2021/08/13 01:35:24;;;;;;;7.35;4.93;;;;;;;21.10;nan;100817.13;5049485;28;20099;-73
2021/08/13 01:38:01;;;;;;;8.82;5.68;;;;;;;21.18;nan;100813.34;5047691;28;20030;-73
2021/08/13 01:40:28;;;;;;;7.25;5.10;;;;;;;21.20;nan;100824.72;5049042;28;20033;-73
2021/08/13 01:42:55;;;;;;;7.10;5.03;;;;;;;21.16;nan;100815.44;5049461;28;20393;-73
2021/08/13 01:45:29;;;;;;;5.55;3.80;;;;;;;21.14;nan;100809.44;5048745;28;20075;-73
2021/08/13 01:47:55;;;;;;;6.85;4.00;;;;;;;21.10;nan;100809.06;5049174;28;20215;-73
2021/08/13 01:50:22;;;;;;;4.68;3.70;;;;;;;21.05;nan;100810.75;5049129;28;20036;-73
2021/08/13 01:52:50;;;;;;;5.47;4.07;;;;;;;21.00;nan;100819.44;5049083;28;20025;-73
2021/08/13 01:55:17;;;;;;;5.53;4.18;;;;;;;20.93;nan;100822.16;5049245;28;20057;-73
2021/08/13 01:57:44;;;;;;;5.85;4.32;;;;;;;20.91;nan;100831.47;5052544;28;20029;-73
2021/08/13 02:00:10;;;;;;;6.28;4.60;;;;;;;20.83;nan;100832.50;5055731;28;20523;-73
2021/08/13 02:02:37;;;;;;;5.55;4.20;;;;;;;20.78;nan;100827.81;5056528;28;20124;-74
2021/08/13 02:05:04;;;;;;;6.05;4.50;;;;;;;20.77;nan;100825.31;5056684;28;20029;-73
2021/08/13 02:07:31;;;;;;;6.82;4.70;;;;;;;20.81;nan;100813.13;5056453;28;20102;-73
2021/08/13 02:09:57;;;;;;;7.60;5.10;;;;;;;20.87;nan;100808.75;5055206;28;20413;-73
2021/08/13 02:12:22;;;;;;;6.72;4.97;;;;;;;20.84;nan;100810.00;5055151;28;20037;-73
2021/08/13 02:14:48;;;;;;;8.73;5.55;;;;;;;20.99;nan;100810.53;5055132;28;20049;-73
2021/08/13 02:17:19;;;;;;;7.95;5.35;;;;;;;20.93;nan;100806.03;5055166;28;20128;-73
2021/08/13 02:19:57;;;;;;;7.97;5.82;;;;;;;20.93;nan;100810.59;5055808;28;20494;-74
2021/08/13 02:22:22;;;;;;;7.72;5.50;;;;;;;20.95;nan;100822.78;5055134;28;20033;-73
2021/08/13 02:24:48;;;;;;;6.72;5.10;;;;;;;20.88;nan;100816.59;5055264;28;20047;-74
2021/08/13 02:27:13;;;;;;;8.80;5.70;;;;;;;20.90;nan;100819.06;5055086;28;20029;-74
2021/08/13 02:29:39;;;;;;;6.05;4.55;;;;;;;20.94;nan;100831.03;5055417;28;20037;-74
2021/08/13 02:32:05;;;;;;;6.10;4.20;;;;;;;20.96;nan;100837.03;5054005;28;20061;-74
2021/08/13 02:34:31;;;;;;;7.90;5.00;;;;;;;20.91;nan;100831.47;5055551;28;20044;-74
2021/08/13 02:37:21;;;;;;;5.88;4.63;;;;;;;20.93;nan;100840.16;5055180;28;20067;-74
2021/08/13 02:39:56;;;;;;;6.95;4.07;;;;;;;20.92;nan;100836.63;5053522;28;20533;-73
2021/08/13 02:42:33;;;;;;;8.27;4.95;;;;;;;20.93;nan;100840.16;5055036;28;20413;-73
2021/08/13 02:45:00;;;;;;;8.15;5.13;;;;;;;20.87;nan;100841.00;5055024;28;20518;-74
2021/08/13 02:47:29;;;;;;;7.53;5.50;;;;;;;20.86;nan;100847.44;5055842;28;20534;-73
2021/08/13 02:50:02;;;;;;;7.57;5.57;;;;;;;20.80;nan;100865.19;5055421;28;20044;-74
2021/08/13 02:52:33;;;;;;;9.13;5.78;;;;;;;20.85;nan;100865.38;5055783;28;20032;-74
2021/08/13 02:55:04;;;;;;;7.68;5.72;;;;;;;20.88;nan;100862.31;5054771;28;20111;-73
2021/08/13 02:57:33;;;;;;;8.65;6.00;;;;;;;20.85;nan;100859.19;5056020;28;20375;-74
2021/08/13 03:00:02;;;;;;;7.38;5.82;;;;;;;20.73;nan;100854.47;5055346;28;20123;-73
2021/08/13 03:02:30;;;;;;;7.13;5.50;;;;;;;20.66;nan;100864.41;5054895;28;20033;-74
2021/08/13 03:04:57;;;;;;;7.95;5.60;;;;;;;20.60;nan;100910.13;5055133;28;20041;-74
2021/08/13 03:07:24;;;;;;;7.55;6.20;;;;;;;20.70;nan;100942.75;5054950;28;20068;-74
2021/08/13 03:09:51;;;;;;;10.07;7.05;;;;;;;20.70;nan;100883.63;5050293;28;20033;-74
2021/08/13 03:12:16;;;;;;;10.82;7.80;;;;;;;20.51;nan;100851.19;5051977;28;20055;-74
2021/08/13 03:14:42;;;;;;;12.68;7.90;;;;;;;20.25;nan;100886.13;5051608;28;20429;-74
2021/08/13 03:17:08;;;;;;;10.23;7.53;;;;;;;20.10;nan;100895.22;5051802;28;20045;-74
2021/08/13 03:19:34;;;;;;;10.93;7.72;;;;;;;20.05;nan;100880.75;5051867;28;20044;-73
2021/08/13 03:22:00;;;;;;;10.48;7.78;;;;;;;20.02;nan;100881.16;5052341;28;20033;-74
2021/08/13 03:24:26;;;;;;;9.75;7.05;;;;;;;20.01;nan;100876.81;5051594;28;20513;-74
2021/08/13 03:26:51;;;;;;;10.05;7.57;;;;;;;20.06;nan;100877.03;5051879;28;20041;-74
2021/08/13 03:29:17;;;;;;;9.85;7.78;;;;;;;20.04;nan;100879.91;5036164;28;20040;-75
2021/08/13 03:31:44;;;;;;;9.32;7.65;;;;;;;20.14;nan;100888.41;5051870;28;20037;-74
2021/08/13 03:34:12;;;;;;;12.68;8.35;;;;;;;20.25;nan;100875.38;5051399;28;20394;-74
2021/08/13 03:36:37;;;;;;;9.85;7.90;;;;;;;20.41;nan;100864.22;5051873;28;20512;-74
2021/08/13 03:39:08;;;;;;;9.85;7.53;;;;;;;20.49;nan;100873.91;5051559;28;20107;-74
2021/08/13 03:41:34;;;;;;;11.80;7.65;;;;;;;20.60;nan;100884.06;5052399;28;20086;-74
2021/08/13 03:44:00;;;;;;;10.77;7.60;;;;;;;20.61;nan;100868.75;5051429;28;20046;-74
2021/08/13 03:46:25;;;;;;;11.98;8.43;;;;;;;20.64;nan;100862.97;5051297;28;20045;-74
2021/08/13 03:48:50;;;;;;;9.30;7.22;;;;;;;20.63;nan;100872.88;5051236;28;20291;-73
2021/08/13 03:51:16;;;;;;;8.75;6.57;;;;;;;20.63;nan;100880.13;5051805;28;20033;-74
2021/08/13 03:53:41;;;;;;;9.43;7.25;;;;;;;20.68;nan;100904.50;5051181;28;20038;-74
2021/08/13 03:56:06;;;;;;;12.40;7.70;;;;;;;20.66;nan;100968.38;5051085;28;20033;-74
2021/08/13 03:58:32;;;;;;;12.88;8.07;;;;;;;20.79;nan;101006.00;5050773;28;20173;-74
2021/08/13 04:00:57;;;;;;;12.60;8.10;;;;;;;20.82;nan;100994.84;5051020;28;20041;-74
2021/08/13 04:03:22;;;;;;;9.00;7.47;;;;;;;20.77;nan;100939.00;5051262;28;20548;-73
2021/08/13 04:05:48;;;;;;;11.85;7.40;;;;;;;20.71;nan;100936.34;5051025;28;20112;-73
2021/08/13 04:08:13;;;;;;;11.73;7.72;;;;;;;20.63;nan;100936.56;5050732;28;20401;-74
2021/08/13 04:10:38;;;;;;;;;;;;;;;20.60;nan;100934.28;5051682;28;20040;-74
2021/08/13 04:13:03;;;;;;;9.17;6.90;;;;;;;20.50;nan;100932.81;5049875;28;19986;-74
2021/08/13 04:15:29;;;;;;;5.50;4.90;;;;;;;20.54;nan;100928.66;5049553;28;20496;-74
2021/08/13 04:17:54;;;;;;;;;;;;;;;20.47;nan;100918.97;5051477;28;20123;-73
2021/08/13 04:20:20;;;;;;;8.63;6.75;;;;;;;20.28;nan;100916.06;5051167;28;20355;-74
2021/08/13 04:22:45;;;;;;;9.13;6.95;;;;;;;20.15;nan;100916.88;5062178;28;20033;-73
2021/08/13 04:25:10;;;;;;;11.10;7.05;;;;;;;20.14;nan;100922.47;5051081;28;20033;-74
2021/08/13 04:27:36;;;;;;;7.43;5.88;;;;;;;20.12;nan;100927.22;5049520;28;20438;-73
2021/08/13 04:30:01;;;;;;;10.43;7.55;;;;;;;20.01;nan;100934.03;5050499;28;20048;-73
2021/08/13 04:32:27;;;;;;;10.68;7.32;;;;;;;19.93;nan;100927.00;5050421;28;20040;-74
2021/08/13 04:34:52;;;;;;;8.05;6.50;;;;;;;19.93;nan;100927.00;5050421;28;20057;-74
2021/08/13 04:37:17;;;;;;;6.90;5.57;;;;;;;19.94;nan;100919.75;5050709;28;20033;-73
2021/08/13 04:39:43;;;;;;;6.95;5.50;;;;;;;19.97;nan;100908.59;5050628;28;20503;-73
2021/08/13 04:42:08;;;;;;;9.18;7.22;;;;;;;19.91;nan;100921.00;5050559;28;20570;-73
2021/08/13 04:44:33;;;;;;;8.90;6.75;;;;;;;19.86;nan;100923.47;5050138;28;20037;-74
2021/08/13 04:46:59;;;;;;;8.18;6.97;;;;;;;19.84;nan;100919.34;5050742;28;20032;-74
2021/08/13 04:49:25;;;;;;;8.25;6.40;;;;;;;19.91;nan;100920.19;5049955;28;20037;-74
2021/08/13 04:51:51;;;;;;;10.07;7.72;;;;;;;20.00;nan;100908.22;5050359;28;20039;-74
2021/08/13 04:54:16;;;;;;;10.50;8.27;;;;;;;20.08;nan;100891.91;5049236;28;20037;-73
2021/08/13 04:56:41;;;;;;;12.50;8.07;;;;;;;20.14;nan;100887.56;5050738;28;20047;-74
2021/08/13 04:59:06;;;;;;;10.82;7.82;;;;;;;20.21;nan;100885.69;5049743;28;20041;-74
2021/08/13 05:01:32;;;;;;;8.68;6.65;;;;;;;20.25;nan;100884.25;5050115;28;20049;-74
2021/08/13 05:03:57;;;;;;;10.55;7.53;;;;;;;20.30;nan;100894.38;5050438;28;20029;-74
2021/08/13 05:06:22;;;;;;;8.88;6.70;;;;;;;20.35;nan;100890.06;5049496;28;20044;-73
2021/08/13 05:08:48;;;;;;;10.33;7.57;;;;;;;20.45;nan;100886.09;5049702;28;20037;-74
2021/08/13 05:11:13;;;;;;;12.98;7.93;;;;;;;20.58;nan;100889.63;5049596;28;20665;-73
2021/08/13 05:13:38;;;;;;;10.85;8.07;;;;;;;20.71;nan;100890.66;5049261;28;20039;-74
2021/08/13 05:16:04;;;;;;;13.77;8.27;;;;;;;20.71;nan;100893.34;5049714;28;20045;-73
2021/08/13 05:18:29;;;;;;;11.25;8.18;;;;;;;20.73;nan;100884.03;5049468;28;20033;-73
2021/08/13 05:20:58;;;;;;;11.10;7.82;;;;;;;20.68;nan;100874.94;5049172;28;20116;-73
2021/08/13 05:23:23;;;;;;;11.27;7.97;;;;;;;20.68;nan;100874.94;5049980;28;20037;-74
2021/08/13 05:25:49;;;;;;;10.50;6.70;;;;;;;20.71;nan;100864.63;5049814;28;20087;-74
2021/08/13 05:28:14;;;;;;;10.13;7.53;;;;;;;20.74;nan;100858.81;5048032;28;20405;-74
2021/08/13 05:30:39;;;;;;;8.67;6.57;;;;;;;20.79;nan;100863.56;5049281;28;20378;-74
2021/08/13 05:33:04;;;;;;;7.82;6.10;;;;;;;20.97;nan;100862.88;5049274;28;20406;-74
2021/08/13 05:35:30;;;;;;;8.30;5.95;;;;;;;21.19;nan;100855.38;5049689;28;20040;-74
2021/08/13 05:37:57;;;;;;;8.43;5.85;;;;;;;21.38;nan;100858.97;5050208;28;20425;-74
2021/08/13 05:40:22;;;;;;;6.82;5.70;;;;;;;21.52;nan;100859.75;5048722;28;20033;-74
2021/08/13 05:42:48;;;;;;;8.67;5.73;;;;;;;21.52;nan;100868.66;5049394;28;20528;-74
2021/08/13 05:45:13;;;;;;;7.00;5.72;;;;;;;21.56;nan;100866.38;5049368;28;20037;-74
2021/08/13 05:47:39;;;;;;;7.15;5.70;;;;;;;21.66;nan;100866.72;5049113;28;20037;-74
2021/08/13 05:50:05;;;;;;;6.70;5.18;;;;;;;21.80;nan;100870.16;5049718;28;20039;-74
2021/08/13 05:52:31;;;;;;;8.23;6.47;;;;;;;21.89;nan;100874.22;5049080;28;20036;-74
2021/08/13 05:54:56;;;;;;;6.95;5.78;;;;;;;21.96;nan;100883.06;5049263;28;20049;-73
2021/08/13 05:57:21;;;;;;;8.10;6.30;;;;;;;22.21;nan;100887.69;5049134;28;20103;-74
2021/08/13 05:59:47;;;;;;;8.77;6.60;;;;;;;22.39;nan;100890.44;5048850;28;20279;-74
2021/08/13 06:02:16;;;;;;;6.18;5.50;;;;;;;22.89;nan;100900.31;5048528;28;20254;-74
2021/08/13 06:04:42;;;;;;;6.78;5.47;;;;;;;23.45;nan;100904.63;5048938;28;20112;-74
2021/08/13 06:07:07;;;;;;;5.95;4.80;;;;;;;23.96;nan;100916.00;5049362;28;20101;-74
2021/08/13 06:09:32;;;;;;;6.88;4.75;;;;;;;24.18;nan;100919.00;5048309;28;20414;-74
2021/08/13 06:11:58;;;;;;;5.53;4.32;;;;;;;24.19;nan;100911.69;5049527;28;20112;-74
2021/08/13 06:14:23;;;;;;;4.85;4.18;;;;;;;24.06;nan;100908.16;5048310;28;20033;-74
2021/08/13 06:16:48;;;;;;;5.45;4.18;;;;;;;23.94;nan;100905.44;5049376;28;20033;-74
2021/08/13 06:19:14;;;;;;;5.63;4.15;;;;;;;23.88;nan;100917.19;5048647;28;20041;-74
2021/08/13 06:21:39;;;;;;;6.20;4.70;;;;;;;23.70;nan;100915.31;5049429;28;20043;-74
2021/08/13 06:24:04;;;;;;;7.50;5.47;;;;;;;23.54;nan;100926.75;5049071;28;20041;-74
2021/08/13 06:26:30;;;;;;;6.93;5.32;;;;;;;23.47;nan;100920.59;5048519;28;20525;-74
2021/08/13 06:28:55;;;;;;;8.82;5.70;;;;;;;23.40;nan;100928.78;5046432;28;20112;-74
2021/08/13 06:31:21;;;;;;;5.93;4.80;;;;;;;23.37;nan;100937.34;5049280;28;20069;-74
2021/08/13 06:33:47;;;;;;;5.95;4.57;;;;;;;23.59;nan;100944.97;5049704;28;20044;-74
2021/08/13 06:36:13;;;;;;;5.63;4.15;;;;;;;24.28;nan;100946.25;5048475;28;20029;-74
2021/08/13 06:38:38;;;;;;;7.38;5.57;;;;;;;24.98;nan;100944.69;5048355;28;20032;-74
2021/08/13 06:41:03;;;;;;;7.47;5.05;;;;;;;25.78;nan;100937.63;5048780;28;20720;-74
2021/08/13 06:43:29;;;;;;;5.22;4.40;;;;;;;26.44;nan;100940.69;5047636;28;20802;-75
2021/08/13 06:45:54;;;;;;;;;;;;;;;26.96;nan;100958.53;5051617;28;20099;-74
2021/08/13 06:48:19;;;;;;;7.90;4.80;;;;;;;27.25;nan;100959.25;5051713;28;20361;-75
2021/08/13 06:50:45;;;;;;;8.38;5.28;;;;;;;27.40;nan;100961.34;5051524;28;20041;-74
2021/08/13 06:53:10;;;;;;;7.82;5.82;;;;;;;27.45;nan;100964.91;5052629;28;20060;-74
2021/08/13 06:55:35;;;;;;;8.13;5.32;;;;;;;27.75;nan;100959.00;5048905;28;20490;-74
2021/08/13 06:58:05;;;;;;;6.05;4.85;;;;;;;27.80;nan;100968.31;5051036;28;20423;-74
2021/08/13 07:00:30;;;;;;;8.93;6.10;;;;;;;27.89;nan;100969.53;5052658;28;20075;-74
2021/08/13 07:02:55;;;;;;;7.45;5.40;;;;;;;27.39;nan;100970.53;5051089;28;20040;-75
2021/08/13 07:05:21;;;;;;;8.25;5.90;;;;;;;27.40;nan;100977.63;5045379;28;20559;-74
2021/08/13 07:07:46;;;;;;;6.35;5.30;;;;;;;27.20;nan;100980.91;5051955;28;20033;-74
2021/08/13 07:10:12;;;;;;;8.20;5.97;;;;;;;27.36;nan;100977.28;5051531;28;20099;-74
2021/08/13 07:12:38;;;;;;;7.07;5.28;;;;;;;27.55;nan;100980.50;5052135;28;20037;-74
2021/08/13 07:15:08;;;;;;;7.75;5.53;;;;;;;27.92;nan;100980.69;5051514;28;20045;-74
2021/08/13 07:17:34;;;;;;;8.10;5.85;;;;;;;28.33;nan;100982.97;5038583;28;20497;-75
2021/08/13 07:20:00;;;;;;;8.73;5.60;;;;;;;28.51;nan;100979.06;5051703;28;20216;-75
2021/08/13 07:22:25;;;;;;;9.15;6.18;;;;;;;28.77;nan;100993.66;5047536;28;20136;-75
2021/08/13 07:24:50;;;;;;;8.27;5.82;;;;;;;29.10;nan;100994.44;5045246;28;20064;-75
2021/08/13 07:27:16;;;;;;;6.40;5.13;;;;;;;29.25;nan;100999.13;5045989;28;20057;-74
2021/08/13 07:29:41;;;;;;;7.55;5.45;;;;;;;29.60;nan;100995.72;5046118;28;20516;-75
2021/08/13 07:32:06;;;;;;;11.95;6.97;;;;;;;30.21;nan;100984.97;5049006;28;20029;-75
2021/08/13 07:34:32;;;;;;;10.25;6.07;;;;;;;30.42;nan;100995.94;5051770;28;20083;-75
2021/08/13 07:36:57;;;;;;;9.60;6.10;;;;;;;30.51;nan;100991.56;5036886;28;20418;-75
2021/08/13 07:39:22;;;;;;;10.57;6.63;;;;;;;30.51;nan;100999.75;5031984;28;20271;-75
2021/08/13 07:41:48;;;;;;;10.00;7.10;;;;;;;30.20;nan;100997.00;5031905;28;20375;-75
2021/08/13 07:44:13;;;;;;;9.75;6.85;;;;;;;30.24;nan;101006.25;5032418;28;20268;-75
2021/08/13 07:46:40;;;;;;;9.25;6.57;;;;;;;30.13;nan;100995.59;5052420;28;20128;-75
2021/08/13 07:49:05;;;;;;;9.55;6.45;;;;;;;30.09;nan;100998.06;5050931;28;20120;-74
2021/08/13 07:51:30;;;;;;;9.68;5.97;;;;;;;30.39;nan;100999.19;5051457;28;20112;-75
2021/08/13 07:53:56;;;;;;;10.07;6.40;;;;;;;30.61;nan;101001.66;5051354;28;20521;-75
2021/08/13 07:56:21;;;;;;;12.25;7.13;;;;;;;30.97;nan;100998.91;5049970;28;20041;-75
2021/08/13 07:58:46;;;;;;;8.85;5.90;;;;;;;31.04;nan;100997.50;5050977;28;20029;-75
2021/08/13 08:01:12;;;;;;;8.35;6.15;;;;;;;30.68;nan;101008.47;5051895;28;20025;-75
2021/08/13 08:03:38;;;;;;;6.80;5.20;;;;;;;30.68;nan;101013.94;5050126;28;20027;-75
2021/08/13 08:06:04;;;;;;;10.20;6.43;;;;;;;31.31;nan;101008.06;5051377;28;20052;-75
2021/08/13 08:08:30;;;;;;;7.70;5.07;;;;;;;31.22;nan;101000.72;5050705;28;20047;-75
2021/08/13 08:10:55;;;;;;;8.65;5.78;;;;;;;31.14;nan;100999.38;5051278;28;20033;-75
2021/08/13 08:13:21;;;;;;;7.50;5.40;;;;;;;30.88;nan;101002.16;5051472;28;20029;-75
2021/08/13 08:15:46;;;;;;;7.13;5.38;;;;;;;30.92;nan;101012.56;5050732;28;20055;-75
2021/08/13 08:18:12;;;;;;;8.68;5.70;;;;;;;31.14;nan;101007.56;5050359;28;20286;-75
2021/08/13 08:20:37;;;;;;;6.60;4.90;;;;;;;31.39;nan;101006.66;5051355;28;20598;-75
2021/08/13 08:23:04;;;;;;;9.93;7.00;;;;;;;31.98;nan;101010.50;5051007;28;20037;-75
2021/08/13 08:25:29;;;;;;;7.15;5.25;;;;;;;32.24;nan;101010.34;5051175;28;20076;-75
2021/08/13 08:27:55;;;;;;;11.52;8.25;;;;;;;33.01;nan;101018.66;5050336;28;20133;-75
2021/08/13 08:30:21;;;;;;;9.82;6.57;;;;;;;32.78;nan;101020.28;5049681;28;20080;-75
2021/08/13 08:32:46;;;;;;;10.38;6.65;;;;;;;33.20;nan;101016.88;5050725;28;20569;-75
2021/08/13 08:35:11;;;;;;;12.13;7.85;;;;;;;33.17;nan;101022.91;5050842;28;20033;-75
2021/08/13 08:37:54;;;;;;;11.57;7.10;;;;;;;32.00;nan;101026.66;5050853;28;20043;-75
2021/08/13 08:40:28;;;;;;;12.05;6.72;;;;;;;32.04;nan;101027.72;5050243;28;20037;-75
2021/08/13 08:42:59;;;;;;;10.32;7.32;;;;;;;32.41;nan;101024.41;5050696;28;20131;-75
2021/08/13 08:45:29;;;;;;;14.57;8.15;;;;;;;33.09;nan;101031.78;5049796;28;20524;-75
2021/08/13 08:48:00;;;;;;;8.70;6.30;;;;;;;32.81;nan;101035.34;5036223;28;20055;-75
2021/08/13 08:50:27;;;;;;;9.32;5.93;;;;;;;33.14;nan;101023.50;5049778;28;20036;-74
2021/08/13 08:52:53;;;;;;;7.93;5.50;;;;;;;33.93;nan;101020.31;5050573;28;20429;-75
2021/08/13 08:55:19;;;;;;;7.90;5.70;;;;;;;34.35;nan;101028.72;5045761;28;20033;-75
2021/08/13 08:57:45;;;;;;;9.05;5.50;;;;;;;33.40;nan;101032.22;5031172;28;20037;-75
2021/08/13 09:00:11;;;;;;;7.68;5.63;;;;;;;33.80;nan;101026.50;5049641;28;20052;-75
2021/08/13 09:02:40;;;;;;;9.95;5.78;;;;;;;34.28;nan;101018.16;5050209;28;20029;-76
2021/08/13 09:05:06;;;;;;;9.18;5.35;;;;;;;33.50;nan;101020.31;5050051;28;20041;-75
2021/08/13 09:07:31;;;;;;;8.05;5.65;;;;;;;33.07;nan;101027.69;5048890;28;20432;-75
2021/08/13 09:09:59;;;;;;;6.53;5.18;;;;;;;33.93;nan;101028.53;5050662;28;20044;-75
2021/08/13 09:12:24;;;;;;;9.43;5.68;;;;;;;34.64;nan;101029.38;5049930;28;20124;-75
2021/08/13 09:14:50;;;;;;;9.02;5.45;;;;;;;34.21;nan;101018.53;5049657;28;20140;-75
2021/08/13 09:17:15;;;;;;;6.50;4.75;;;;;;;34.33;nan;101022.75;5050026;28;20047;-75
2021/08/13 09:19:45;;;;;;;8.57;5.28;;;;;;;34.63;nan;101016.75;5050499;28;20041;-75
2021/08/13 09:22:13;;;;;;;6.95;4.90;;;;;;;34.02;nan;101021.25;5049468;28;20037;-75
2021/08/13 09:24:41;;;;;;;7.05;5.35;;;;;;;33.90;nan;101012.66;5049812;28;20103;-75
2021/08/13 09:27:33;;;;;;;7.15;5.40;;;;;;;33.45;nan;101011.34;5048266;28;20040;-75
2021/08/13 09:30:17;;;;;;;7.22;5.18;;;;;;;32.85;nan;101007.06;5030754;28;20543;-75
2021/08/13 09:32:57;;;;;;;7.07;4.90;;;;;;;32.82;nan;101009.56;5049574;28;20056;-75
2021/08/13 09:35:37;;;;;;;6.13;4.57;;;;;;;32.84;nan;101016.38;5048265;28;20044;-75
2021/08/13 09:38:09;;;;;;;8.23;5.10;;;;;;;33.05;nan;101017.03;5049425;28;20559;-75
2021/08/13 09:40:39;;;;;;;9.18;5.70;;;;;;;32.92;nan;101014.97;5047783;28;20124;-75
2021/08/13 09:43:05;;;;;;;6.38;5.18;;;;;;;32.22;nan;101005.13;5049666;28;20252;-75
2021/08/13 09:45:30;;;;;;;6.88;4.45;;;;;;;32.02;nan;101013.50;5043016;28;20395;-75
2021/08/13 09:47:56;;;;;;;6.70;4.47;;;;;;;32.33;nan;101009.44;5040857;28;20103;-75
2021/08/13 09:50:38;;;;;;;6.95;5.32;;;;;;;32.92;nan;101023.97;5036239;28;20041;-75
2021/08/13 09:53:06;;;;;;;7.57;5.35;;;;;;;33.03;nan;101021.94;5044472;28;20496;-75
2021/08/13 09:55:31;;;;;;;6.35;4.68;;;;;;;32.71;nan;101023.38;5041584;28;20490;-75
2021/08/13 09:57:57;;;;;;;9.05;5.35;;;;;;;32.38;nan;101022.25;5042585;28;20405;-76
2021/08/13 10:00:22;;;;;;;6.03;4.45;;;;;;;32.26;nan;101025.34;5041506;28;20082;-75
2021/08/13 10:02:47;;;;;;;9.17;5.47;;;;;;;32.64;nan;101028.38;5042300;28;20029;-74
2021/08/13 10:05:23;;;;;;;5.63;4.93;;;;;;;32.23;nan;101025.94;5041577;28;20294;-74
2021/08/13 10:07:54;;;;;;;7.90;4.70;;;;;;;31.67;nan;101037.19;5039856;28;20090;-74
2021/08/13 10:10:28;;;;;;;7.47;4.70;;;;;;;31.44;nan;101030.44;5044869;28;20214;-74
2021/08/13 10:12:54;;;;;;;6.45;4.82;;;;;;;31.33;nan;101026.91;5045515;28;20443;-74
2021/08/13 10:15:47;;;;;;;7.30;5.25;;;;;;;31.14;nan;101015.78;5044378;28;20036;-74
2021/08/13 10:18:15;;;;;;;6.93;4.97;;;;;;;31.44;nan;101027.72;5039776;28;20041;-74
2021/08/13 10:20:43;;;;;;;7.90;5.20;;;;;;;31.51;nan;101020.88;5048850;28;20569;-74
2021/08/13 10:23:10;;;;;;;7.70;5.75;;;;;;;31.57;nan;101026.31;5049784;28;20033;-74
2021/08/13 10:25:36;;;;;;;9.10;5.57;;;;;;;31.77;nan;101026.19;5047712;28;20037;-74
2021/08/13 10:28:02;;;;;;;6.95;5.25;;;;;;;31.73;nan;101027.88;5048275;28;20562;-74
2021/08/13 10:30:27;;;;;;;6.22;4.18;;;;;;;32.20;nan;101015.53;5037074;28;20389;-74
2021/08/13 10:32:56;;;;;;;6.50;4.90;;;;;;;32.06;nan;101009.91;5049691;28;20041;-74
2021/08/13 10:35:32;;;;;;;7.60;5.55;;;;;;;31.90;nan;101011.91;5061865;28;20033;-74
2021/08/13 10:37:59;;;;;;;7.82;5.40;;;;;;;31.77;nan;101006.22;5045857;28;20045;-74
2021/08/13 10:40:25;;;;;;;7.28;5.35;;;;;;;31.52;nan;101005.28;5028712;28;20107;-74
2021/08/13 10:42:52;;;;;;;6.93;5.40;;;;;;;31.58;nan;101008.78;5028353;28;20045;-74
2021/08/13 10:45:22;;;;;;;7.05;5.43;;;;;;;31.58;nan;101006.06;5026992;28;20494;-74
2021/08/13 10:48:06;;;;;;;9.60;5.53;;;;;;;31.38;nan;101006.94;5027406;28;20418;-74
2021/08/13 10:50:32;;;;;;;6.85;5.22;;;;;;;31.39;nan;101005.84;5046164;28;20037;-74
2021/08/13 10:52:57;;;;;;;8.80;5.55;;;;;;;31.45;nan;101004.75;5047628;28;20371;-74
2021/08/13 10:55:41;;;;;;;8.30;5.70;;;;;;;31.46;nan;101004.50;5041365;28;20040;-74
2021/08/13 10:58:08;;;;;;;8.43;5.75;;;;;;;31.49;nan;101001.19;5046086;28;20056;-74
2021/08/13 11:01:13;;;;;;;8.32;5.40;;;;;;;31.47;nan;101008.03;5048837;28;20029;-73
2021/08/13 11:03:58;;;;;;;7.55;4.97;;;;;;;31.56;nan;100998.16;4962663;28;20035;-74
2021/08/13 11:06:36;;;;;;;8.27;6.00;;;;;;;31.58;nan;101006.88;5055491;28;20126;-74
2021/08/13 11:09:02;;;;;;;7.50;4.95;;;;;;;31.37;nan;101000.66;5051502;28;20044;-74
2021/08/13 11:12:05;;;;;;;8.20;5.07;;;;;;;31.39;nan;101009.38;5047464;28;20036;-74
2021/08/13 11:14:46;;;;;;;7.10;4.63;;;;;;;31.32;nan;100998.78;5045268;28;20063;-74
2021/08/13 11:17:30;;;;;;;;;;;;;;;31.53;nan;100996.81;5047810;28;20033;-74
2021/08/13 11:19:58;;;;;;;8.32;5.30;;;;;;;31.58;nan;100995.94;5050104;28;20427;-74
2021/08/13 11:22:29;;;;;;;6.78;5.32;;;;;;;31.68;nan;100998.63;5047388;28;20037;-74
2021/08/13 11:24:55;;;;;;;6.47;4.38;;;;;;;31.79;nan;101002.13;5052948;28;20041;-74
2021/08/13 11:27:20;;;;;;;7.60;5.78;;;;;;;32.01;nan;101001.72;5036820;28;20341;-74
2021/08/13 11:29:46;;;;;;;9.20;5.18;;;;;;;31.87;nan;101001.53;5045118;28;20032;-74
2021/08/13 11:32:14;;;;;;;7.55;5.00;;;;;;;31.89;nan;101006.69;5045833;28;20040;-74
2021/08/13 11:34:52;;;;;;;9.13;4.97;;;;;;;32.01;nan;101006.38;5044727;28;20493;-74
2021/08/13 11:37:29;;;;;;;5.77;4.13;;;;;;;31.67;nan;101004.38;5036710;28;20398;-74
2021/08/13 11:40:05;;;;;;;9.00;5.03;;;;;;;31.83;nan;100999.66;5049053;28;20045;-74
2021/08/13 11:42:31;;;;;;;7.88;5.22;;;;;;;31.69;nan;100999.44;5040535;28;20064;-74
2021/08/13 11:44:59;;;;;;;11.52;6.35;;;;;;;32.08;nan;100996.75;5048026;28;20036;-74